createdAt,value
2023-03-02T00:00:31.646Z,624.00
2023-03-02T00:01:31.738Z,627.00
2023-03-02T00:02:31.867Z,628.00
2023-03-02T00:03:31.897Z,629.00
2023-03-02T00:04:31.973Z,625.00
2023-03-02T00:05:32.044Z,627.00
2023-03-02T00:06:32.385Z,635.00
2023-03-02T00:07:32.194Z,631.00
2023-03-02T00:08:32.260Z,628.00
2023-03-02T00:09:32.344Z,630.00
2023-03-02T00:10:32.435Z,625.00
2023-03-02T00:11:32.504Z,628.00
2023-03-02T00:12:32.575Z,628.00
2023-03-02T00:13:32.648Z,632.00
2023-03-02T00:14:32.746Z,623.00
2023-03-02T00:15:32.852Z,624.00
2023-03-02T00:16:33.269Z,630.00
2023-03-02T00:17:32.975Z,633.00
2023-03-02T00:18:33.054Z,626.00
2023-03-02T00:19:33.125Z,621.00
2023-03-02T00:20:33.268Z,628.00
2023-03-02T00:21:33.295Z,627.00
2023-03-02T00:22:33.358Z,625.00
2023-03-02T00:23:33.447Z,625.00
2023-03-02T00:24:33.539Z,627.00
2023-03-02T00:25:33.621Z,625.00
2023-03-02T00:26:34.072Z,621.00
2023-03-02T00:27:33.766Z,633.00
2023-03-02T00:28:33.838Z,618.00
2023-03-02T00:29:33.920Z,621.00
2023-03-02T00:30:34.008Z,627.00
2023-03-02T00:31:34.158Z,626.00
2023-03-02T00:32:34.424Z,625.00
2023-03-02T00:33:34.227Z,623.00
2023-03-02T00:34:34.314Z,624.00
2023-03-02T00:35:34.408Z,619.00
2023-03-02T00:36:34.452Z,624.00
2023-03-02T00:37:34.524Z,628.00
2023-03-02T00:38:34.631Z,625.00
2023-03-02T00:39:34.689Z,622.00
2023-03-02T00:40:34.773Z,622.00
2023-03-02T00:41:34.849Z,623.00
2023-03-02T00:42:34.919Z,618.00
2023-03-02T00:43:34.997Z,627.00
2023-03-02T00:44:35.074Z,623.00
2023-03-02T00:45:35.159Z,621.00
2023-03-02T00:46:35.631Z,625.00
2023-03-02T00:47:35.304Z,622.00
2023-03-02T00:48:35.382Z,622.00
2023-03-02T00:49:35.464Z,622.00
2023-03-02T00:50:35.548Z,619.00
2023-03-02T00:51:35.631Z,621.00
2023-03-02T00:52:35.698Z,619.00
2023-03-02T00:53:35.777Z,618.00
2023-03-02T00:54:35.857Z,617.00
2023-03-02T00:55:35.942Z,619.00
2023-03-02T00:56:36.031Z,625.00
2023-03-02T00:57:36.112Z,618.00
2023-03-02T00:58:36.191Z,620.00
2023-03-02T00:59:36.272Z,621.00
2023-03-02T01:00:36.351Z,619.00
2023-03-02T01:01:36.429Z,617.00
2023-03-02T01:02:36.579Z,617.00
2023-03-02T01:03:36.617Z,613.00
2023-03-02T01:04:36.669Z,617.00
2023-03-02T01:05:36.759Z,620.00
2023-03-02T01:06:36.824Z,616.00
2023-03-02T01:07:36.907Z,619.00
2023-03-02T01:08:36.985Z,614.00
2023-03-02T01:09:37.068Z,611.00
2023-03-02T01:10:37.152Z,620.00
2023-03-02T01:11:37.218Z,614.00
2023-03-02T01:12:37.292Z,614.00
2023-03-02T01:13:37.371Z,617.00
2023-03-02T01:14:37.446Z,612.00
2023-03-02T01:15:37.535Z,617.00
2023-03-02T01:16:37.662Z,617.00
2023-03-02T01:17:37.697Z,612.00
2023-03-02T01:18:37.778Z,614.00
2023-03-02T01:19:37.844Z,613.00
2023-03-02T01:20:37.903Z,613.00
2023-03-02T01:21:37.968Z,613.00
2023-03-02T01:22:38.041Z,611.00
2023-03-02T01:23:38.105Z,615.00
2023-03-02T01:24:38.187Z,616.00
2023-03-02T01:25:38.253Z,614.00
2023-03-02T01:26:38.331Z,616.00
2023-03-02T01:27:38.398Z,612.00
2023-03-02T01:28:38.466Z,609.00
2023-03-02T01:29:38.541Z,613.00
2023-03-02T01:30:38.614Z,612.00
2023-03-02T01:31:38.753Z,617.00
2023-03-02T01:32:38.811Z,619.00
2023-03-02T01:33:38.836Z,618.00
2023-03-02T01:34:38.902Z,613.00
2023-03-02T01:35:38.982Z,615.00
2023-03-02T01:36:39.043Z,612.00
2023-03-02T01:37:39.122Z,616.00
2023-03-02T01:38:39.245Z,613.00
2023-03-02T01:39:39.271Z,613.00
2023-03-02T01:40:39.336Z,608.00
2023-03-02T01:41:39.401Z,608.00
2023-03-02T03:34:47.761Z,594.00
2023-03-02T03:35:47.909Z,590.00
2023-03-02T03:36:47.916Z,585.00
2023-03-02T03:37:47.977Z,588.00
2023-03-02T03:38:48.043Z,591.00
2023-03-02T03:39:48.145Z,587.00
2023-03-02T03:40:48.205Z,589.00
2023-03-02T03:41:48.274Z,586.00
2023-03-02T03:42:48.343Z,586.00
2023-03-02T03:43:48.416Z,587.00
2023-03-02T03:44:48.494Z,585.00
2023-03-02T03:45:48.595Z,590.00
2023-03-02T03:46:48.642Z,585.00
2023-03-02T03:47:48.722Z,589.00
2023-03-02T03:48:48.782Z,589.00
2023-03-02T03:49:48.857Z,590.00
2023-03-02T03:50:48.938Z,583.00
2023-03-02T03:51:49.010Z,591.00
2023-03-02T03:52:49.093Z,588.00
2023-03-02T03:53:49.174Z,586.00
2023-03-02T03:54:49.229Z,590.00
2023-03-02T03:55:49.303Z,586.00
2023-03-02T03:56:49.382Z,584.00
2023-03-02T03:57:49.464Z,585.00
2023-03-02T03:58:49.630Z,580.00
2023-03-02T03:59:49.605Z,585.00
2023-03-02T04:00:49.682Z,585.00
2023-03-02T04:01:49.818Z,586.00
2023-03-02T04:02:49.866Z,586.00
2023-03-02T04:03:49.894Z,582.00
2023-03-02T04:04:49.963Z,580.00
2023-03-02T04:05:50.036Z,581.00
2023-03-02T04:06:50.101Z,582.00
2023-03-02T04:07:50.181Z,586.00
2023-03-02T04:08:50.258Z,585.00
2023-03-02T04:09:50.317Z,586.00
2023-03-02T06:03:57.732Z,568.00
2023-03-02T06:04:57.782Z,563.00
2023-03-02T06:05:57.845Z,566.00
2023-03-02T06:06:57.928Z,566.00
2023-03-02T06:07:57.982Z,565.00
2023-03-02T06:08:58.013Z,562.00
2023-03-02T06:09:58.079Z,562.00
2023-03-02T06:10:58.142Z,563.00
2023-03-02T06:11:58.270Z,563.00
2023-03-02T06:12:58.241Z,563.00
2023-03-02T06:13:58.283Z,561.00
2023-03-02T06:14:58.328Z,565.00
2023-03-02T06:15:58.386Z,564.00
2023-03-02T06:16:58.507Z,565.00
2023-03-02T06:17:58.502Z,565.00
2023-03-02T06:18:58.560Z,563.00
2023-03-02T06:19:58.630Z,564.00
2023-03-02T06:20:58.734Z,563.00
2023-03-02T06:21:58.730Z,564.00
2023-03-02T06:22:58.780Z,570.00
2023-03-02T06:23:58.850Z,570.00
2023-03-02T06:24:58.942Z,574.00
2023-03-02T06:25:59.021Z,579.00
2023-03-02T06:26:59.048Z,584.00
2023-03-02T06:27:59.105Z,585.00
2023-03-02T06:28:59.170Z,587.00
2023-03-02T06:29:59.243Z,597.00
2023-03-02T06:30:59.336Z,604.00
2023-03-02T06:31:59.489Z,600.00
2023-03-02T06:32:59.480Z,607.00
2023-03-02T06:33:59.580Z,611.00
2023-03-02T06:34:59.744Z,623.00
2023-03-02T06:35:59.877Z,622.00
2023-03-02T06:36:59.890Z,620.00
2023-03-02T06:37:59.929Z,624.00
2023-03-02T06:39:00.018Z,629.00
2023-03-02T06:40:00.112Z,624.00
2023-03-02T06:41:00.201Z,629.00
2023-03-02T06:42:00.255Z,629.00
2023-03-02T06:43:01.682Z,632.00
2023-03-02T06:44:00.365Z,631.00
2023-03-02T06:45:00.447Z,641.00
2023-03-02T06:46:00.628Z,640.00
2023-03-02T06:47:00.587Z,638.00
2023-03-02T06:48:00.664Z,638.00
2023-03-02T06:49:00.737Z,634.00
2023-03-02T06:50:00.827Z,647.00
2023-03-02T06:51:00.896Z,635.00
2023-03-02T06:52:01.009Z,638.00
2023-03-02T06:53:01.067Z,643.00
2023-03-02T06:54:01.150Z,633.00
2023-03-02T06:55:01.266Z,641.00
2023-03-02T06:56:01.355Z,635.00
2023-03-02T06:57:01.444Z,641.00
2023-03-02T06:58:01.532Z,637.00
2023-03-02T06:59:01.603Z,642.00
2023-03-02T07:00:01.690Z,649.00
2023-03-02T07:01:01.781Z,651.00
2023-03-02T07:02:01.838Z,637.00
2023-03-02T07:03:01.883Z,649.00
2023-03-02T07:04:01.999Z,645.00
2023-03-02T08:22:07.723Z,1561.00
2023-03-02T08:23:07.789Z,1389.00
2023-03-02T08:24:07.850Z,1117.00
2023-03-02T08:25:07.896Z,1034.00
2023-03-02T08:26:08.003Z,967.00
2023-03-02T08:27:08.119Z,931.00
2023-03-02T08:28:08.200Z,922.00
2023-03-02T08:29:08.310Z,914.00
2023-03-02T08:30:08.422Z,955.00
2023-03-02T08:31:08.526Z,1006.00
2023-03-02T08:32:08.718Z,1078.00
2023-03-02T08:33:10.528Z,1112.00
2023-03-02T08:34:08.733Z,1133.00
2023-03-02T08:35:08.814Z,1155.00
2023-03-02T08:36:08.945Z,1182.00
2023-03-02T08:37:08.894Z,1210.00
2023-03-02T08:38:08.941Z,1227.00
2023-03-02T08:39:08.992Z,1242.00
2023-03-02T08:40:09.034Z,1266.00
2023-03-02T08:41:09.090Z,1266.00
2023-03-02T08:42:09.122Z,1290.00
2023-03-02T08:43:09.169Z,1299.00
2023-03-02T08:44:09.206Z,1315.00
2023-03-02T08:45:09.268Z,1334.00
2023-03-02T08:46:09.332Z,1349.00
2023-03-02T08:47:09.371Z,1374.00
2023-03-02T08:48:09.429Z,1335.00
2023-03-02T08:49:09.480Z,1181.00
2023-03-02T08:50:09.547Z,999.00
2023-03-02T08:51:09.589Z,925.00
2023-03-02T08:52:09.641Z,851.00
2023-03-02T08:53:09.723Z,810.00
2023-03-02T08:54:09.798Z,874.00
2023-03-02T08:55:09.975Z,913.00
2023-03-02T08:56:10.534Z,913.00
2023-03-02T08:57:10.003Z,955.00
2023-03-02T08:58:10.086Z,992.00
2023-03-02T08:59:10.092Z,1008.00
2023-03-02T09:00:11.127Z,1009.00
2023-03-02T09:01:10.204Z,1012.00
2023-03-02T09:02:10.178Z,1022.00
2023-03-02T09:03:10.203Z,1041.00
2023-03-02T09:04:10.293Z,1084.00
2023-03-02T09:05:10.286Z,1099.00
2023-03-02T09:06:11.045Z,1099.00
2023-03-02T09:07:10.315Z,1114.00
2023-03-02T09:08:11.115Z,1140.00
2023-03-02T09:09:10.383Z,1141.00
2023-03-02T09:10:10.421Z,1170.00
2023-03-02T09:11:10.437Z,1165.00
2023-03-02T09:12:10.462Z,1173.00
2023-03-02T09:13:10.501Z,1201.00
2023-03-02T09:14:10.533Z,1203.00
2023-03-02T09:15:10.550Z,1225.00
2023-03-02T09:16:10.646Z,1212.00
2023-03-02T09:17:10.664Z,1227.00
2023-03-02T09:18:10.750Z,1240.00
2023-03-02T09:19:10.829Z,1263.00
2023-03-02T09:20:10.921Z,1270.00
2023-03-02T09:21:11.002Z,1283.00
2023-03-02T09:22:11.072Z,1292.00
2023-03-02T09:23:11.148Z,1325.00
2023-03-02T09:24:11.257Z,1333.00
2023-03-02T09:25:11.345Z,1340.00
2023-03-02T09:26:11.436Z,1333.00
2023-03-02T09:27:11.520Z,1332.00
2023-03-02T09:28:11.624Z,1341.00
2023-03-02T09:29:11.718Z,1342.00
2023-03-02T09:30:11.824Z,1345.00
2023-03-02T09:31:11.916Z,1331.00
2023-03-02T09:32:12.108Z,1336.00
2023-03-02T09:33:12.135Z,1330.00
2023-03-02T09:34:12.182Z,1329.00
2023-03-02T09:35:12.282Z,1328.00
2023-03-02T09:36:12.325Z,1314.00
2023-03-02T09:37:12.385Z,1325.00
2023-03-02T09:38:12.471Z,1316.00
2023-03-02T09:39:12.623Z,1313.00
2023-03-02T09:40:12.599Z,1312.00
2023-03-02T09:41:12.679Z,1297.00
2023-03-02T09:42:12.767Z,1295.00
2023-03-02T09:43:12.834Z,1299.00
2023-03-02T09:44:12.904Z,1303.00
2023-03-02T09:45:12.967Z,1287.00
2023-03-02T09:46:13.079Z,1299.00
2023-03-02T09:47:13.099Z,1281.00
2023-03-02T09:48:13.169Z,1281.00
2023-03-02T09:49:13.236Z,1278.00
2023-03-02T09:50:13.294Z,1273.00
2023-03-02T09:51:13.362Z,1260.00
2023-03-02T09:52:13.414Z,1266.00
2023-03-02T09:53:13.471Z,1261.00
2023-03-02T09:54:13.601Z,1263.00
2023-03-02T09:55:13.639Z,1256.00
2023-03-02T09:56:13.696Z,1264.00
2023-03-02T09:57:13.766Z,1264.00
2023-03-02T09:58:14.604Z,1242.00
2023-03-02T09:59:13.917Z,1246.00
2023-03-02T10:00:19.664Z,1248.00
2023-03-02T10:01:16.695Z,1248.00
2023-03-02T10:02:14.023Z,1249.00
2023-03-02T10:03:17.474Z,1243.00
2023-03-02T10:04:14.265Z,1249.00
2023-03-02T10:05:14.114Z,1248.00
2023-03-02T10:06:14.158Z,1236.00
2023-03-02T10:07:14.185Z,1239.00
2023-03-02T10:08:14.221Z,1228.00
2023-03-02T10:09:14.236Z,1220.00
2023-03-02T10:10:15.148Z,1214.00
2023-03-02T10:11:14.312Z,1214.00
2023-03-02T10:12:14.344Z,1210.00
2023-03-02T10:13:14.373Z,1203.00
2023-03-02T10:14:14.388Z,1201.00
2023-03-02T10:15:14.431Z,1204.00
2023-03-02T10:16:14.510Z,1204.00
2023-03-02T10:17:15.139Z,1193.00
2023-03-02T10:18:14.535Z,1187.00
2023-03-02T10:19:14.539Z,1185.00
2023-03-02T10:20:14.569Z,1188.00
2023-03-02T10:21:14.598Z,1189.00
2023-03-02T10:22:15.137Z,1175.00
2023-03-02T10:23:14.659Z,1178.00
2023-03-02T10:24:14.712Z,1174.00
2023-03-02T10:25:14.794Z,1167.00
2023-03-02T10:26:14.752Z,1167.00
2023-03-02T10:27:14.800Z,1161.00
2023-03-02T10:28:14.803Z,1146.00
2023-03-02T10:29:14.830Z,1153.00
2023-03-02T10:30:14.864Z,1148.00
2023-03-02T10:31:15.014Z,1151.00
2023-03-02T10:32:14.974Z,1150.00
2023-03-02T10:33:14.969Z,1131.00
2023-03-02T10:34:15.002Z,1138.00
2023-03-02T10:35:15.048Z,1133.00
2023-03-02T10:36:15.068Z,1122.00
2023-03-02T10:37:15.127Z,1128.00
2023-03-02T10:38:15.145Z,1121.00
2023-03-02T11:10:18.154Z,449.00
2023-03-02T11:13:17.799Z,504.00
2023-03-02T11:14:17.934Z,516.00
2023-03-02T11:15:18.034Z,502.00
2023-03-02T11:16:18.218Z,509.00
2023-03-02T11:17:18.228Z,527.00
2023-03-02T11:18:18.349Z,553.00
2023-03-02T11:19:18.400Z,586.00
2023-03-02T11:20:18.468Z,616.00
2023-03-02T11:21:18.521Z,660.00
2023-03-02T11:22:18.645Z,708.00
2023-03-02T11:23:18.776Z,831.00
2023-03-02T11:24:18.851Z,959.00
2023-03-02T11:25:18.966Z,1048.00
2023-03-02T11:26:19.036Z,1081.00
2023-03-02T11:27:19.102Z,1156.00
2023-03-02T11:28:19.154Z,1182.00
2023-03-02T11:29:21.604Z,1238.00
2023-03-02T11:30:19.255Z,1275.00
2023-03-02T11:31:19.382Z,1333.00
2023-03-02T11:32:19.403Z,1376.00
2023-03-02T11:33:19.397Z,1384.00
2023-03-02T11:34:19.434Z,1442.00
2023-03-02T11:35:21.586Z,1484.00
2023-03-02T11:36:19.489Z,1486.00
2023-03-02T11:37:19.519Z,1495.00
2023-03-02T11:38:19.568Z,1527.00
2023-03-02T11:39:19.610Z,1578.00
2023-03-02T11:40:19.655Z,1684.00
2023-03-02T11:41:19.679Z,1705.00
2023-03-02T11:42:19.809Z,1735.00
2023-03-02T11:43:19.746Z,1796.00
2023-03-02T11:44:19.768Z,1828.00
2023-03-02T11:45:19.809Z,1860.00
2023-03-02T11:46:22.217Z,1882.00
2023-03-02T11:47:19.927Z,1885.00
2023-03-02T11:48:19.888Z,1895.00
2023-03-02T11:49:19.918Z,1920.00
2023-03-02T11:50:19.945Z,1964.00
2023-03-02T11:51:19.977Z,2032.00
2023-03-02T11:52:20.011Z,2057.00
2023-03-02T11:53:20.070Z,2065.00
2023-03-02T11:54:20.064Z,2085.00
2023-03-02T11:55:20.091Z,2103.00
2023-03-02T11:56:20.133Z,2108.00
2023-03-02T11:57:20.151Z,2118.00
2023-03-02T11:58:20.187Z,2139.00
2023-03-02T11:59:21.140Z,2160.00
2023-03-02T12:00:20.231Z,2153.00
2023-03-02T12:01:20.260Z,2158.00
2023-03-02T12:02:20.337Z,2182.00
2023-03-02T12:03:20.313Z,2185.00
2023-03-02T12:04:20.321Z,2170.00
2023-03-02T12:05:20.380Z,2192.00
2023-03-02T12:06:20.359Z,2196.00
2023-03-02T12:07:20.400Z,2209.00
2023-03-02T12:08:20.403Z,2222.00
2023-03-02T12:09:20.511Z,2234.00
2023-03-02T12:10:20.458Z,2235.00
2023-03-02T12:11:20.478Z,2246.00
2023-03-02T12:12:20.506Z,2247.00
2023-03-02T12:13:20.528Z,2244.00
2023-03-02T12:14:20.557Z,2248.00
2023-03-02T12:15:20.583Z,2243.00
2023-03-02T12:16:20.699Z,2252.00
2023-03-02T12:17:20.647Z,2258.00
2023-03-02T12:18:20.691Z,2249.00
2023-03-02T12:19:20.696Z,2250.00
2023-03-02T12:34:21.193Z,2250.00
2023-03-02T12:43:21.528Z,2222.00
2023-03-02T12:44:21.532Z,2224.00
2023-03-02T12:45:21.573Z,2218.00
2023-03-02T12:46:21.640Z,2217.00
2023-03-02T12:47:22.456Z,2216.00
2023-03-02T12:48:21.897Z,2222.00
2023-03-02T12:49:21.740Z,2218.00
2023-03-02T12:50:21.770Z,2205.00
2023-03-02T12:51:21.962Z,2212.00
2023-03-02T12:52:23.925Z,2209.00
2023-03-02T12:53:21.914Z,2212.00
2023-03-02T12:54:21.951Z,2211.00
2023-03-02T12:55:21.987Z,2207.00
2023-03-02T12:56:22.035Z,2201.00
2023-03-02T12:57:22.090Z,2202.00
2023-03-02T12:58:22.123Z,2201.00
2023-03-02T12:59:22.167Z,2188.00
2023-03-02T13:00:22.209Z,2196.00
2023-03-02T13:01:22.336Z,2196.00
2023-03-02T13:02:22.303Z,2207.00
2023-03-02T13:03:22.330Z,2215.00
2023-03-02T13:04:22.421Z,2195.00
2023-03-02T13:05:23.125Z,2220.00
2023-03-02T13:06:22.473Z,2236.00
2023-03-02T13:07:22.507Z,2261.00
2023-03-02T13:08:23.191Z,2269.00
2023-03-02T13:09:22.584Z,2306.00
2023-03-02T13:10:22.656Z,2325.00
2023-03-02T13:11:22.672Z,2334.00
2023-03-02T13:12:22.737Z,2338.00
2023-03-02T13:13:22.897Z,2358.00
2023-03-02T13:14:22.829Z,2368.00
2023-03-02T13:15:22.874Z,2379.00
2023-03-02T13:16:23.038Z,2398.00
2023-03-02T13:17:23.030Z,2421.00
2023-03-02T13:18:23.090Z,2424.00
2023-03-02T13:19:24.134Z,2446.00
2023-03-02T13:20:23.239Z,2461.00
2023-03-02T13:21:23.329Z,2463.00
2023-03-02T13:22:23.503Z,2476.00
2023-03-02T13:23:23.494Z,2499.00
2023-03-02T13:24:23.572Z,2514.00
2023-03-02T13:25:23.643Z,2525.00
2023-03-02T14:13:27.727Z,2858.00
2023-03-02T14:14:27.806Z,2857.00
2023-03-02T14:15:27.927Z,2861.00
2023-03-02T14:16:27.985Z,2861.00
2023-03-02T14:17:28.074Z,2870.00
2023-03-02T14:18:28.143Z,2872.00
2023-03-02T14:19:28.230Z,2874.00
2023-03-02T14:20:28.319Z,2894.00
2023-03-02T14:21:28.457Z,2897.00
2023-03-02T14:22:28.486Z,2905.00
2023-03-02T14:23:28.633Z,2922.00
2023-03-02T14:25:28.728Z,2930.00
2023-03-02T16:47:37.716Z,2514.00
2023-03-02T16:48:37.775Z,2519.00
2023-03-02T16:49:37.836Z,2518.00
2023-03-02T16:50:37.894Z,2505.00
2023-03-02T16:55:38.221Z,2494.00
2023-03-02T16:58:38.430Z,2487.00
2023-03-02T16:59:38.496Z,2488.00
2023-03-02T17:00:38.588Z,2477.00
2023-03-02T17:01:38.656Z,2477.00
2023-03-02T17:02:38.698Z,2482.00
2023-03-02T17:03:38.765Z,2478.00
2023-03-02T17:04:38.895Z,2465.00
2023-03-02T17:05:38.904Z,2464.00
2023-03-02T17:06:41.636Z,2462.00
2023-03-02T17:08:39.043Z,2457.00
2023-03-02T17:09:39.105Z,2441.00
2023-03-02T17:10:39.117Z,2447.00
2023-03-02T17:14:39.278Z,2443.00
2023-03-02T17:22:39.582Z,2414.00
2023-03-02T17:23:39.616Z,2410.00
2023-03-02T17:24:39.663Z,2409.00
2023-03-02T17:25:39.691Z,2402.00
2023-03-02T17:26:39.729Z,2399.00
2023-03-02T17:27:39.776Z,2380.00
2023-03-02T17:28:39.800Z,2400.00
2023-03-02T17:29:39.841Z,2390.00
2023-03-02T17:30:39.889Z,2384.00
2023-03-02T17:31:39.927Z,2389.00
2023-03-02T17:32:39.955Z,2388.00
2023-03-02T17:33:39.991Z,2371.00
2023-03-02T17:34:40.035Z,2374.00
2023-03-02T17:35:40.076Z,2371.00
2023-03-02T17:36:40.119Z,2372.00
2023-03-02T17:37:40.151Z,2370.00
2023-03-02T17:38:40.207Z,2371.00
2023-03-02T17:39:40.248Z,2364.00
2023-03-02T17:40:40.290Z,2357.00
2023-03-02T17:41:40.324Z,2365.00
2023-03-02T17:42:40.358Z,2364.00
2023-03-02T17:43:40.396Z,2370.00
2023-03-02T17:44:40.450Z,2357.00
2023-03-02T17:45:40.472Z,2349.00
2023-03-02T17:47:40.565Z,2343.00
2023-03-02T17:48:40.587Z,2338.00
2023-03-02T17:49:40.632Z,2348.00
2023-03-02T17:50:40.677Z,2327.00
2023-03-02T17:51:40.714Z,2329.00
2023-03-02T17:52:40.762Z,2331.00
2023-03-02T17:53:40.792Z,2328.00
2023-03-02T17:54:40.829Z,2335.00
2023-03-02T17:55:40.876Z,2321.00
2023-03-02T17:56:40.931Z,2314.00
2023-03-02T17:57:40.936Z,2319.00
2023-03-02T17:58:45.138Z,2330.00
2023-03-02T17:59:41.020Z,2330.00
2023-03-02T18:00:41.061Z,2316.00
2023-03-02T18:01:41.100Z,2309.00
2023-03-02T19:14:47.814Z,2112.00
2023-03-02T19:15:47.918Z,2111.00
2023-03-02T19:16:48.185Z,2123.00
2023-03-02T19:17:48.112Z,2115.00
2023-03-02T19:18:48.228Z,2117.00
2023-03-02T19:19:48.311Z,2108.00
2023-03-02T19:20:48.417Z,2103.00
2023-03-02T19:21:48.538Z,2108.00
2023-03-02T19:22:48.632Z,2093.00
2023-03-02T19:23:48.726Z,2081.00
2023-03-02T19:24:48.823Z,2095.00
2023-03-02T19:25:48.921Z,2087.00
2023-03-02T19:26:49.015Z,2094.00
2023-03-02T19:27:49.111Z,2066.00
2023-03-02T19:28:49.218Z,2088.00
2023-03-02T19:29:49.352Z,2071.00
2023-03-02T19:30:49.474Z,2070.00
2023-03-02T19:31:49.603Z,2085.00
2023-03-02T19:32:49.660Z,2078.00
2023-03-02T19:33:49.731Z,2046.00
2023-03-02T19:34:49.812Z,2064.00
2023-03-02T19:35:49.947Z,2056.00
2023-03-02T19:36:49.986Z,2054.00
2023-03-02T19:37:50.111Z,2053.00
2023-03-02T19:38:50.211Z,2060.00
2023-03-02T19:39:50.286Z,2040.00
2023-03-02T19:40:50.370Z,2049.00
2023-03-02T19:41:50.472Z,2048.00
2023-03-02T19:42:50.560Z,2036.00
2023-03-02T19:43:50.646Z,2038.00
2023-03-02T19:44:50.710Z,2044.00
2023-03-02T19:45:50.848Z,2038.00
2023-03-02T19:46:50.937Z,2039.00
2023-03-02T19:47:51.058Z,2031.00
2023-03-02T19:48:51.125Z,2028.00
2023-03-02T19:49:51.213Z,2023.00
2023-03-02T19:50:51.328Z,2027.00
2023-03-02T19:51:51.446Z,2028.00
2023-03-02T19:52:51.532Z,2021.00
2023-03-02T19:53:51.641Z,2020.00
2023-03-02T19:54:51.752Z,2013.00
2023-03-02T19:55:51.858Z,2025.00
2023-03-02T19:56:51.935Z,2014.00
2023-03-02T19:57:52.004Z,1994.00
2023-03-02T19:58:52.099Z,2002.00
2023-03-02T19:59:52.199Z,1986.00
2023-03-02T20:00:52.288Z,1992.00
2023-03-02T20:01:52.384Z,1994.00
2023-03-02T20:02:52.448Z,1993.00
2023-03-02T20:03:52.534Z,1990.00
2023-03-02T20:04:52.629Z,1991.00
2023-03-02T20:05:52.742Z,1986.00
2023-03-02T20:06:52.819Z,1976.00
2023-03-02T20:07:52.886Z,1991.00
2023-03-02T20:08:52.986Z,1982.00
2023-03-02T20:09:53.014Z,1973.00
2023-03-02T20:10:53.093Z,1980.00
2023-03-02T20:11:53.170Z,1957.00
2023-03-02T20:12:53.251Z,1963.00
2023-03-02T20:13:53.308Z,1965.00
2023-03-02T20:14:53.430Z,1966.00
2023-03-02T20:15:53.491Z,1955.00
2023-03-02T20:16:53.630Z,1945.00
2023-03-02T20:17:53.667Z,1968.00
2023-03-02T20:18:53.765Z,1952.00
2023-03-02T20:19:53.853Z,1944.00
2023-03-02T20:20:53.935Z,1946.00
2023-03-02T20:21:54.010Z,1949.00
2023-03-02T20:22:54.074Z,1942.00
2023-03-02T20:23:54.143Z,1942.00
2023-03-02T20:24:54.242Z,1934.00
2023-03-02T20:25:54.361Z,1928.00
2023-03-02T21:13:57.777Z,1830.00
2023-03-02T21:14:57.844Z,1819.00
2023-03-02T21:15:57.958Z,1814.00
2023-03-02T21:16:57.996Z,1818.00
2023-03-02T21:17:58.062Z,1815.00
2023-03-02T21:18:58.131Z,1803.00
2023-03-02T21:19:58.213Z,1812.00
2023-03-02T21:20:58.230Z,1801.00
2023-03-02T21:21:58.328Z,1802.00
2023-03-02T21:22:58.394Z,1805.00
2023-03-02T21:23:58.476Z,1790.00
2023-03-02T21:24:58.585Z,1806.00
2023-03-02T21:25:58.616Z,1789.00
2023-03-02T21:26:58.702Z,1786.00
2023-03-02T21:27:58.758Z,1789.00
2023-03-02T21:28:58.840Z,1792.00
2023-03-02T21:29:58.920Z,1789.00
2023-03-02T21:30:59.030Z,1789.00
2023-03-02T21:31:59.101Z,1785.00
2023-03-02T21:32:59.140Z,1776.00
2023-03-02T21:33:59.185Z,1782.00
2023-03-02T21:34:59.249Z,1781.00
2023-03-02T21:35:59.292Z,1775.00
2023-03-02T21:36:59.342Z,1779.00
2023-03-02T21:37:59.459Z,1764.00
2023-03-02T21:38:59.529Z,1767.00
2023-03-02T21:39:59.581Z,1744.00
2023-03-02T21:40:59.658Z,1758.00
2023-03-02T21:41:59.720Z,1758.00
2023-03-02T21:42:59.771Z,1749.00
2023-03-02T21:43:59.835Z,1736.00
2023-03-02T21:44:59.908Z,1750.00
2023-03-02T21:45:59.962Z,1755.00
2023-03-02T21:47:00.016Z,1736.00
2023-03-02T21:48:00.097Z,1739.00
2023-03-02T21:49:00.138Z,1732.00
2023-03-02T21:50:00.180Z,1743.00
2023-03-02T21:51:00.225Z,1743.00
2023-03-02T21:52:00.315Z,1743.00
2023-03-02T21:53:00.388Z,1742.00
2023-03-02T21:54:00.438Z,1737.00
2023-03-02T21:55:00.511Z,1732.00
2023-03-02T21:56:00.564Z,1736.00
2023-03-02T21:57:00.595Z,1723.00
2023-03-02T21:58:00.642Z,1716.00
2023-03-02T21:59:00.722Z,1724.00
2023-03-02T22:00:01.115Z,1718.00
2023-03-02T22:01:00.829Z,1712.00
2023-03-02T22:02:00.940Z,1702.00
2023-03-02T22:03:00.966Z,1696.00
2023-03-02T22:04:01.051Z,1702.00
2023-03-02T22:05:01.240Z,1707.00
2023-03-02T22:06:01.197Z,1705.00
2023-03-02T22:07:01.269Z,1710.00
2023-03-02T23:45:07.748Z,1491.00
2023-03-02T23:46:07.843Z,1486.00
2023-03-02T23:47:07.892Z,1487.00
2023-03-02T23:48:07.948Z,1479.00
2023-03-02T23:49:08.011Z,1478.00
2023-03-02T23:50:08.075Z,1501.00
2023-03-02T23:51:08.148Z,1483.00
2023-03-02T23:52:08.214Z,1471.00
2023-03-02T23:53:08.282Z,1480.00
2023-03-02T23:54:08.365Z,1471.00
2023-03-02T23:55:08.514Z,1473.00
2023-03-02T23:56:08.533Z,1471.00
2023-03-02T23:57:08.620Z,1474.00
2023-03-02T23:58:08.700Z,1463.00
2023-03-02T23:59:08.793Z,1473.00
